Fairmont, WV (26554)

2:46 PM EST on November 27, 2014 (GMT -0500)
N8TJD's WX Station. Stony Rd/Pinchgut Hollow. | Change Station
CLOSE
Current Station
Personal Weather Station
Location: Fairmont, WV
Elevation: 1283 ft
Nearby Weather Stations

Elev 1283 ft 39.46 °N, 80.12 °W | Updated 21 seconds ago

Overcast
Overcast
35.1 °F
Feels Like 35 °F
N
0.0
Wind Variable Wind from SSE
Gusts 0.0 mph

Today
High -- | Low -- °F
--% Chance of Precip.
Yesterday
High -- | Low -- °F
Precip. -- in
7:17 AM 4:58 PM
Waxing Crescent, 32% visible
Pressure 30.12 in
Visibility 10.0 miles
Clouds Few 2500 ft
Mostly Cloudy 3700 ft
Overcast 4400 ft
Windchill 35 °F
Dew Point 21 °F
Humidity 57%
Rainfall 0.00 in
Snow Depth Not available.
UV 1 out of 12
Pollen .10 out of 12
Air Quality Not available.
Flu Activity Not available.
METAR KCKB 271853Z 26009KT 10SM FEW025 BKN037 OVC044 01/M03 A3010 RMK AO2 SLP197 T00111033

More Conditions Fewer Conditions

Pressure 30.12 in
Visibility 10.0 miles
Clouds Few 2500 ft
Mostly Cloudy 3700 ft
Overcast 4400 ft
Windchill 35 °F
Dew Point 21 °F
Humidity 57%
Rainfall 0.00 in
Snow Depth Not available.
UV 1 out of 12
Pollen .10 out of 12
Air Quality Not available.
Flu Activity Not available.
METAR KCKB 271853Z 26009KT 10SM FEW025 BKN037 OVC044 01/M03 A3010 RMK AO2 SLP197 T00111033

More Conditions Fewer Conditions

10-Day Weather Forecast

Almanac

Astronomy

Nov. 27, 2014 Rise Set
Actual Time
Civil Twilight
Nautical Twilight
Astronomical Twilight
Moon
Length of Visible Light
Length of Day
Tomorrow will be .
, % of the Moon is Illuminated

Today's Extremes

State Highs State Lows

Community

WunderPhotos

Upload Photos

1,774,094 photos uploaded!

WunderBlogs® & News

Nearby

Air Quality

  Air Quality AQ Index Pollutant
Not available.

Snow Depth

Station Depth Elevation

Earthquake Activity

City Distance Mag. Time & Date
Minimum magnitude displayed is 2.5.

Coastal Water Temperatures

Place Temperature

Nearby Weather Stations